EHC04 ZZZZ-EHLE
Flight info
| Callsign | EHC04 |
|---|---|
| Flight time | N/A |
| Altitude | 1000 |
| Route | DCT NIJMEGEN DCT HARDERWIJK DCT |
| Aircraft | EC35/L-SBDGRYZ/LB1 |
Departure
| Time | N/A |
|---|---|
| Airport | ZZZZ |
Arrival
| Time | 2026-04-11 20:42 |
|---|---|
| Airport | Lelystad Airport (EHLE) |
| Time | Latitude | Longitude | Altitude | Speed | Heading |
|---|---|---|---|---|---|
| 2026-04-11 20:03 | 51.24290 | 5.90549 | 113 ft | 0 kts | 275° |
| 2026-04-11 20:04 | 51.24288 | 5.90579 | 163 ft | 6 kts | 277° |
| 2026-04-11 20:04 | 51.24281 | 5.90654 | 292 ft | 4 kts | 277° |
| 2026-04-11 20:05 | 51.24299 | 5.90262 | 368 ft | 65 kts | 270° |
| 2026-04-11 20:05 | 51.24321 | 5.89463 | 601 ft | 77 kts | 270° |
| 2026-04-11 20:05 | 51.24446 | 5.88617 | 854 ft | 87 kts | 296° |
| 2026-04-11 20:05 | 51.25026 | 5.88105 | 965 ft | 107 kts | 341° |
| 2026-04-11 20:06 | 51.25805 | 5.88075 | 1027 ft | 117 kts | 351° |
| 2026-04-11 20:06 | 51.26646 | 5.87985 | 1022 ft | 125 kts | 344° |
| 2026-04-11 20:06 | 51.27509 | 5.87733 | 1027 ft | 130 kts | 342° |
| 2026-04-11 20:06 | 51.28396 | 5.87446 | 1028 ft | 130 kts | 342° |
| 2026-04-11 20:07 | 51.29276 | 5.87160 | 1025 ft | 128 kts | 343° |
| 2026-04-11 20:07 | 51.30146 | 5.86884 | 1020 ft | 127 kts | 342° |
| 2026-04-11 20:07 | 51.31012 | 5.86615 | 1021 ft | 126 kts | 343° |
| 2026-04-11 20:07 | 51.31869 | 5.86347 | 1033 ft | 124 kts | 343° |
| 2026-04-11 20:08 | 51.32703 | 5.86085 | 1031 ft | 121 kts | 343° |
| 2026-04-11 20:08 | 51.33520 | 5.85832 | 1024 ft | 118 kts | 343° |
| 2026-04-11 20:08 | 51.34326 | 5.85587 | 1026 ft | 117 kts | 343° |
| 2026-04-11 20:08 | 51.35125 | 5.85342 | 1026 ft | 116 kts | 343° |
| 2026-04-11 20:09 | 51.35916 | 5.85100 | 1021 ft | 116 kts | 342° |
| 2026-04-11 20:09 | 51.36713 | 5.84858 | 1013 ft | 119 kts | 343° |
| 2026-04-11 20:09 | 51.37535 | 5.84612 | 1026 ft | 120 kts | 343° |
| 2026-04-11 20:09 | 51.38350 | 5.84369 | 1017 ft | 121 kts | 343° |
| 2026-04-11 20:10 | 51.39175 | 5.84122 | 1021 ft | 121 kts | 344° |
| 2026-04-11 20:10 | 51.39456 | 5.84038 | 1018 ft | 121 kts | 343° |
| 2026-04-11 20:11 | 51.42503 | 5.83123 | 1020 ft | 123 kts | 343° |
| 2026-04-11 20:11 | 51.43341 | 5.82872 | 1021 ft | 122 kts | 343° |
| 2026-04-11 20:11 | 51.44179 | 5.82620 | 1022 ft | 123 kts | 344° |
| 2026-04-11 20:11 | 51.45021 | 5.82366 | 1020 ft | 123 kts | 343° |
| 2026-04-11 20:12 | 51.45857 | 5.82116 | 1022 ft | 120 kts | 343° |
| 2026-04-11 20:12 | 51.46679 | 5.81868 | 1023 ft | 121 kts | 343° |
| 2026-04-11 20:12 | 51.47513 | 5.81617 | 1024 ft | 122 kts | 343° |
| 2026-04-11 20:12 | 51.48347 | 5.81366 | 1025 ft | 122 kts | 342° |
| 2026-04-11 20:13 | 51.49180 | 5.81113 | 1022 ft | 122 kts | 343° |
| 2026-04-11 20:13 | 51.50017 | 5.80860 | 1022 ft | 122 kts | 343° |
| 2026-04-11 20:13 | 51.50847 | 5.80610 | 1022 ft | 122 kts | 343° |
| 2026-04-11 20:13 | 51.51683 | 5.80358 | 1022 ft | 122 kts | 343° |
| 2026-04-11 20:14 | 51.52518 | 5.80106 | 1023 ft | 123 kts | 342° |
| 2026-04-11 20:14 | 51.53351 | 5.79853 | 1022 ft | 124 kts | 342° |
| 2026-04-11 20:14 | 51.54198 | 5.79596 | 1022 ft | 124 kts | 342° |
| 2026-04-11 20:14 | 51.55045 | 5.79338 | 1021 ft | 123 kts | 343° |
| 2026-04-11 20:15 | 51.55877 | 5.79087 | 1021 ft | 121 kts | 343° |
| 2026-04-11 20:15 | 51.56706 | 5.78835 | 1021 ft | 122 kts | 343° |
| 2026-04-11 20:15 | 51.57539 | 5.78583 | 1017 ft | 122 kts | 343° |
| 2026-04-11 20:15 | 51.58380 | 5.78328 | 1025 ft | 124 kts | 342° |
| 2026-04-11 20:16 | 51.59227 | 5.78069 | 1027 ft | 124 kts | 342° |
| 2026-04-11 20:16 | 51.60070 | 5.77813 | 1017 ft | 122 kts | 343° |
| 2026-04-11 20:16 | 51.60906 | 5.77560 | 1022 ft | 121 kts | 343° |
| 2026-04-11 20:16 | 51.61734 | 5.77308 | 1019 ft | 121 kts | 343° |
| 2026-04-11 20:17 | 51.62567 | 5.77055 | 1024 ft | 121 kts | 342° |
| 2026-04-11 20:17 | 51.63389 | 5.76807 | 1015 ft | 123 kts | 343° |
| 2026-04-11 20:17 | 51.64241 | 5.76550 | 1022 ft | 124 kts | 342° |
| 2026-04-11 20:17 | 51.65086 | 5.76293 | 1020 ft | 123 kts | 343° |
| 2026-04-11 20:18 | 51.65924 | 5.76039 | 1021 ft | 123 kts | 343° |
| 2026-04-11 20:18 | 51.66765 | 5.75783 | 1029 ft | 122 kts | 342° |
| 2026-04-11 20:18 | 51.67599 | 5.75528 | 1021 ft | 122 kts | 343° |
| 2026-04-11 20:18 | 51.68431 | 5.75274 | 1026 ft | 122 kts | 342° |
| 2026-04-11 20:19 | 51.69264 | 5.75020 | 1018 ft | 122 kts | 343° |
| 2026-04-11 20:19 | 51.70101 | 5.74767 | 1021 ft | 123 kts | 343° |
| 2026-04-11 20:19 | 51.70926 | 5.74518 | 1020 ft | 122 kts | 343° |
| 2026-04-11 20:19 | 51.71767 | 5.74264 | 1022 ft | 123 kts | 342° |
| 2026-04-11 20:20 | 51.72605 | 5.74008 | 1026 ft | 122 kts | 342° |
| 2026-04-11 20:20 | 51.73439 | 5.73752 | 1023 ft | 122 kts | 342° |
| 2026-04-11 20:20 | 51.74275 | 5.73496 | 1024 ft | 122 kts | 342° |
| 2026-04-11 20:20 | 51.75110 | 5.73241 | 1022 ft | 122 kts | 343° |
| 2026-04-11 20:21 | 51.75953 | 5.72984 | 1020 ft | 124 kts | 343° |
| 2026-04-11 20:21 | 51.76800 | 5.72726 | 1024 ft | 122 kts | 342° |
| 2026-04-11 20:21 | 51.77632 | 5.72472 | 1018 ft | 122 kts | 342° |
| 2026-04-11 20:21 | 51.78469 | 5.72215 | 1023 ft | 122 kts | 342° |
| 2026-04-11 20:22 | 51.79301 | 5.71959 | 1020 ft | 122 kts | 342° |
| 2026-04-11 20:22 | 51.80137 | 5.71704 | 1019 ft | 123 kts | 343° |
| 2026-04-11 20:22 | 51.80977 | 5.71449 | 1019 ft | 123 kts | 342° |
| 2026-04-11 20:22 | 51.81812 | 5.71194 | 1021 ft | 122 kts | 342° |
| 2026-04-11 20:23 | 51.82644 | 5.70940 | 1021 ft | 121 kts | 342° |
| 2026-04-11 20:23 | 51.83475 | 5.70684 | 1017 ft | 123 kts | 343° |
| 2026-04-11 20:23 | 51.84319 | 5.70425 | 1024 ft | 124 kts | 342° |
| 2026-04-11 20:23 | 51.85161 | 5.70165 | 1016 ft | 123 kts | 343° |
| 2026-04-11 20:24 | 51.86001 | 5.69909 | 1022 ft | 122 kts | 342° |
| 2026-04-11 20:24 | 51.86829 | 5.69654 | 1014 ft | 121 kts | 342° |
| 2026-04-11 20:24 | 51.87649 | 5.69403 | 1013 ft | 122 kts | 343° |
| 2026-04-11 20:24 | 51.88482 | 5.69147 | 1017 ft | 121 kts | 343° |
| 2026-04-11 20:25 | 51.89319 | 5.68891 | 1019 ft | 124 kts | 343° |
| 2026-04-11 20:25 | 51.90158 | 5.68631 | 1020 ft | 121 kts | 343° |
| 2026-04-11 20:25 | 51.90995 | 5.68375 | 1009 ft | 124 kts | 343° |
| 2026-04-11 20:25 | 51.91841 | 5.68116 | 1020 ft | 123 kts | 343° |
| 2026-04-11 20:26 | 51.92672 | 5.67860 | 1017 ft | 122 kts | 343° |
| 2026-04-11 20:26 | 51.93519 | 5.67599 | 1021 ft | 124 kts | 342° |
| 2026-04-11 20:26 | 51.94360 | 5.67339 | 1023 ft | 123 kts | 343° |
| 2026-04-11 20:26 | 51.95201 | 5.67076 | 1017 ft | 124 kts | 343° |
| 2026-04-11 20:27 | 51.96047 | 5.66814 | 1018 ft | 124 kts | 343° |
| 2026-04-11 20:27 | 51.96891 | 5.66552 | 1018 ft | 123 kts | 343° |
| 2026-04-11 20:27 | 51.97730 | 5.66291 | 1014 ft | 123 kts | 343° |
| 2026-04-11 20:27 | 51.98569 | 5.66032 | 1018 ft | 123 kts | 343° |
| 2026-04-11 20:28 | 51.99408 | 5.65774 | 1018 ft | 123 kts | 343° |
| 2026-04-11 20:28 | 52.00250 | 5.65515 | 1017 ft | 124 kts | 343° |
| 2026-04-11 20:28 | 52.01103 | 5.65254 | 1022 ft | 124 kts | 343° |
| 2026-04-11 20:28 | 52.01940 | 5.64994 | 1022 ft | 124 kts | 343° |
| 2026-04-11 20:29 | 52.02786 | 5.64731 | 1021 ft | 123 kts | 343° |
| 2026-04-11 20:29 | 52.03620 | 5.64470 | 1021 ft | 121 kts | 343° |
| 2026-04-11 20:29 | 52.04453 | 5.64212 | 1016 ft | 122 kts | 343° |
| 2026-04-11 20:29 | 52.05287 | 5.63955 | 1021 ft | 122 kts | 343° |
| 2026-04-11 20:30 | 52.06133 | 5.63694 | 1019 ft | 125 kts | 343° |
| 2026-04-11 20:30 | 52.06977 | 5.63432 | 1022 ft | 122 kts | 343° |
| 2026-04-11 20:30 | 52.07816 | 5.63173 | 1016 ft | 123 kts | 343° |
| 2026-04-11 20:30 | 52.08648 | 5.62916 | 1010 ft | 124 kts | 343° |
| 2026-04-11 20:31 | 52.09501 | 5.62653 | 1010 ft | 127 kts | 343° |
| 2026-04-11 20:31 | 52.10389 | 5.62378 | 1021 ft | 130 kts | 343° |
| 2026-04-11 20:31 | 52.11279 | 5.62103 | 1008 ft | 132 kts | 343° |
| 2026-04-11 20:31 | 52.12181 | 5.61827 | 1016 ft | 132 kts | 344° |
| 2026-04-11 20:32 | 52.13092 | 5.61547 | 1020 ft | 133 kts | 344° |
| 2026-04-11 20:32 | 52.13994 | 5.61267 | 1019 ft | 131 kts | 343° |
| 2026-04-11 20:32 | 52.14903 | 5.60986 | 1021 ft | 133 kts | 344° |
| 2026-04-11 20:32 | 52.15815 | 5.60704 | 1016 ft | 133 kts | 343° |
| 2026-04-11 20:33 | 52.16728 | 5.60422 | 1019 ft | 134 kts | 343° |
| 2026-04-11 20:33 | 52.17644 | 5.60137 | 1020 ft | 134 kts | 343° |
| 2026-04-11 20:33 | 52.18563 | 5.59851 | 1018 ft | 135 kts | 343° |
| 2026-04-11 20:33 | 52.19483 | 5.59564 | 1016 ft | 134 kts | 343° |
| 2026-04-11 20:34 | 52.20399 | 5.59279 | 1014 ft | 134 kts | 343° |
| 2026-04-11 20:34 | 52.21320 | 5.58993 | 1011 ft | 135 kts | 343° |
| 2026-04-11 20:34 | 52.22242 | 5.58706 | 1015 ft | 135 kts | 343° |
| 2026-04-11 20:34 | 52.23152 | 5.58422 | 1014 ft | 135 kts | 343° |
| 2026-04-11 20:35 | 52.23981 | 5.58163 | 1017 ft | 134 kts | 343° |
| 2026-04-11 20:35 | 52.24898 | 5.57878 | 1016 ft | 134 kts | 343° |
| 2026-04-11 20:35 | 52.25818 | 5.57591 | 1008 ft | 134 kts | 342° |
| 2026-04-11 20:35 | 52.26735 | 5.57304 | 1017 ft | 134 kts | 343° |
| 2026-04-11 20:36 | 52.27657 | 5.57015 | 1016 ft | 135 kts | 343° |
| 2026-04-11 20:36 | 52.28577 | 5.56728 | 1019 ft | 135 kts | 343° |
| 2026-04-11 20:36 | 52.29500 | 5.56440 | 1018 ft | 134 kts | 343° |
| 2026-04-11 20:36 | 52.30418 | 5.56154 | 1019 ft | 134 kts | 343° |
| 2026-04-11 20:37 | 52.31335 | 5.55867 | 1011 ft | 134 kts | 343° |
| 2026-04-11 20:37 | 52.32249 | 5.55668 | 1016 ft | 137 kts | 353° |
| 2026-04-11 20:37 | 52.33185 | 5.56062 | 1023 ft | 143 kts | 22° |
| 2026-04-11 20:37 | 52.34032 | 5.56930 | 1015 ft | 144 kts | 30° |
| 2026-04-11 20:38 | 52.34871 | 5.57838 | 1024 ft | 145 kts | 30° |
| 2026-04-11 20:38 | 52.35707 | 5.58769 | 1021 ft | 146 kts | 31° |
| 2026-04-11 20:38 | 52.36594 | 5.59535 | 1022 ft | 142 kts | 14° |
| 2026-04-11 20:38 | 52.37537 | 5.60001 | 1016 ft | 142 kts | 12° |
| 2026-04-11 20:39 | 52.38489 | 5.60468 | 1019 ft | 143 kts | 12° |
| 2026-04-11 20:39 | 52.39437 | 5.60927 | 1019 ft | 141 kts | 12° |
| 2026-04-11 20:39 | 52.40377 | 5.60973 | 1023 ft | 132 kts | 337° |
| 2026-04-11 20:39 | 52.41118 | 5.60185 | 1020 ft | 126 kts | 315° |
| 2026-04-11 20:40 | 52.41795 | 5.59270 | 1024 ft | 125 kts | 313° |
| 2026-04-11 20:40 | 52.42450 | 5.58327 | 1022 ft | 125 kts | 312° |
| 2026-04-11 20:40 | 52.43087 | 5.57344 | 1022 ft | 126 kts | 310° |
| 2026-04-11 20:40 | 52.43710 | 5.56335 | 1020 ft | 125 kts | 310° |
| 2026-04-11 20:41 | 52.44315 | 5.55380 | 1002 ft | 115 kts | 310° |
| 2026-04-11 20:41 | 52.45019 | 5.54855 | 1007 ft | 120 kts | 358° |
| 2026-04-11 20:41 | 52.45756 | 5.55523 | 987 ft | 122 kts | 30° |
| 2026-04-11 20:41 | 52.46483 | 5.55410 | 861 ft | 108 kts | 303° |
| 2026-04-11 20:42 | 52.46607 | 5.54264 | 691 ft | 105 kts | 257° |
| 2026-04-11 20:42 | 52.46307 | 5.53257 | 343 ft | 92 kts | 227° |
| 2026-04-11 20:42 | 52.45932 | 5.52568 | 119 ft | 64 kts | 225° |
| 2026-04-11 20:42 | 52.45682 | 5.52124 | 36 ft | 48 kts | 226° |
| 2026-04-11 20:43 | 52.45507 | 5.51796 | 14 ft | 21 kts | 175° |
| 2026-04-11 20:43 | 52.45423 | 5.51898 | 3 ft | 11 kts | 136° |
| 2026-04-11 20:43 | 52.45362 | 5.51920 | 3 ft | 11 kts | 220° |
| 2026-04-11 20:43 | 52.45314 | 5.51895 | 1 ft | 3 kts | 108° |
| 2026-04-11 20:44 | 52.45305 | 5.51904 | -1 ft | 1 kts | 58° |
| 2026-04-11 20:44 | 52.45307 | 5.51912 | -6 ft | 0 kts | 53° |